createdAt,value
2023-02-22T00:01:35.381Z,7.99
2023-02-22T00:04:07.116Z,8.08
2023-02-22T00:06:34.159Z,8.03
2023-02-22T00:09:02.461Z,8.04
2023-02-22T00:11:29.479Z,7.98
2023-02-22T00:14:01.832Z,7.87
2023-02-22T00:16:29.928Z,7.88
2023-02-22T00:19:01.286Z,7.95
2023-02-22T00:21:31.245Z,7.95
2023-02-22T00:23:57.852Z,8.00
2023-02-22T00:26:26.076Z,8.11
2023-02-22T00:29:19.543Z,8.15
2023-02-22T00:31:51.219Z,8.05
2023-02-22T00:34:18.863Z,7.94
2023-02-22T00:36:48.682Z,7.92
2023-02-22T00:39:16.546Z,7.86
2023-02-22T00:41:43.528Z,7.83
2023-02-22T00:44:10.320Z,7.72
2023-02-22T00:46:37.413Z,7.60
2023-02-22T00:49:06.556Z,7.53
2023-02-22T00:51:35.702Z,7.52
2023-02-22T00:54:10.450Z,7.49
2023-02-22T00:56:40.010Z,7.36
2023-02-22T00:59:12.157Z,7.28
2023-02-22T01:01:43.590Z,7.42
2023-02-22T01:04:15.729Z,7.39
2023-02-22T01:06:42.468Z,7.36
2023-02-22T01:09:11.372Z,7.36
2023-02-22T01:11:38.060Z,7.31
2023-02-22T01:14:04.844Z,7.36
2023-02-22T01:16:35.616Z,7.31
2023-02-22T01:19:02.364Z,7.26
2023-02-22T01:21:33.682Z,7.20
2023-02-22T01:24:00.456Z,7.22
2023-02-22T01:26:27.166Z,7.26
2023-02-22T01:28:53.908Z,7.31
2023-02-22T01:31:22.070Z,7.31
2023-02-22T01:33:48.789Z,7.25
2023-02-22T01:36:15.880Z,7.18
2023-02-22T01:38:42.954Z,7.23
2023-02-22T01:41:12.463Z,7.24
2023-02-22T01:43:41.752Z,7.21
2023-02-22T01:46:26.893Z,7.18
2023-02-22T01:49:05.623Z,7.20
2023-02-22T01:51:39.082Z,7.22
2023-02-22T01:54:20.921Z,7.28
2023-02-22T01:57:06.423Z,7.28
2023-02-22T01:59:36.740Z,7.29
2023-02-22T02:02:04.663Z,7.34
2023-02-22T02:04:38.989Z,7.33
2023-02-22T02:07:07.503Z,7.32
2023-02-22T02:09:46.790Z,7.29
2023-02-22T02:12:25.664Z,7.36
2023-02-22T02:14:52.794Z,7.39
2023-02-22T02:17:23.044Z,7.39
2023-02-22T02:20:00.933Z,7.36
2023-02-22T02:23:16.518Z,7.36
2023-02-22T02:26:10.976Z,7.29
2023-02-22T02:29:10.834Z,7.33
2023-02-22T02:32:08.665Z,7.26
2023-02-22T02:34:58.821Z,7.19
2023-02-22T02:37:27.602Z,7.15
2023-02-22T02:40:12.264Z,7.17
2023-02-22T02:42:46.298Z,7.08
2023-02-22T02:45:24.036Z,7.02
2023-02-22T02:48:06.543Z,6.99
2023-02-22T02:50:48.702Z,6.95
2023-02-22T02:53:24.401Z,6.92
2023-02-22T02:55:53.722Z,6.91
2023-02-22T02:58:25.471Z,6.85
2023-02-22T03:00:56.115Z,6.86
2023-02-22T03:03:29.293Z,6.83
2023-02-22T03:06:02.100Z,6.84
2023-02-22T03:09:27.751Z,6.87
2023-02-22T03:12:01.861Z,6.85
2023-02-22T03:17:36.879Z,6.78
2023-02-22T03:20:12.400Z,6.80
2023-02-22T03:22:59.445Z,6.78
2023-02-22T03:25:47.270Z,6.78
2023-02-22T03:31:18.858Z,6.75
2023-02-22T03:34:23.966Z,6.69
2023-02-22T03:37:02.393Z,6.64
2023-02-22T03:39:35.759Z,6.63
2023-02-22T03:42:14.708Z,6.57
2023-02-22T03:44:48.735Z,6.63
2023-02-22T03:47:24.772Z,6.53
2023-02-22T03:50:10.061Z,6.51
2023-02-22T03:52:37.740Z,6.52
2023-02-22T03:55:11.243Z,6.52
2023-02-22T03:57:41.740Z,6.46
2023-02-22T04:00:11.235Z,6.41
2023-02-22T04:02:42.508Z,6.48
2023-02-22T04:05:17.890Z,6.48
2023-02-22T04:07:47.825Z,6.38
2023-02-22T04:10:16.135Z,6.32
2023-02-22T04:12:52.586Z,6.25
2023-02-22T04:15:34.716Z,6.18
2023-02-22T04:18:10.152Z,6.12
2023-02-22T04:20:39.393Z,6.12
2023-02-22T04:23:08.571Z,6.09
2023-02-22T04:25:35.298Z,6.05
2023-02-22T04:28:04.391Z,6.03
2023-02-22T04:30:45.136Z,6.02
2023-02-22T04:33:19.638Z,6.00
2023-02-22T04:35:50.947Z,5.98
2023-02-22T04:38:17.691Z,6.01
2023-02-22T04:40:44.317Z,6.04
2023-02-22T04:43:13.872Z,6.03
2023-02-22T04:45:41.029Z,6.06
2023-02-22T04:48:08.014Z,6.06
2023-02-22T04:50:35.236Z,6.11
2023-02-22T04:53:04.555Z,6.08
2023-02-22T04:55:31.221Z,6.06
2023-02-22T04:58:00.444Z,6.05
2023-02-22T05:00:27.190Z,6.08
2023-02-22T05:02:53.884Z,6.00
2023-02-22T05:05:21.776Z,5.93
2023-02-22T05:07:51.848Z,5.89
2023-02-22T05:10:18.788Z,5.93
2023-02-22T05:12:48.148Z,5.96
2023-02-22T05:15:19.119Z,6.00
2023-02-22T05:17:47.554Z,6.07
2023-02-22T05:20:35.422Z,6.08
2023-02-22T05:23:05.481Z,6.08
2023-02-22T05:25:33.362Z,6.07
2023-02-22T05:28:01.475Z,6.05
2023-02-22T05:30:30.195Z,6.05
2023-02-22T05:32:59.037Z,6.06
2023-02-22T05:35:25.912Z,6.09
2023-02-22T05:37:52.615Z,6.07
2023-02-22T05:40:22.515Z,6.06
2023-02-22T05:42:59.913Z,6.16
2023-02-22T05:45:27.676Z,6.17
2023-02-22T05:47:57.632Z,6.23
2023-02-22T05:50:25.084Z,6.24
2023-02-22T05:52:54.781Z,6.22
2023-02-22T05:55:26.363Z,6.20
2023-02-22T05:57:53.403Z,6.17
2023-02-22T06:00:30.609Z,6.13
2023-02-22T06:03:06.849Z,6.09
2023-02-22T06:05:38.855Z,6.03
2023-02-22T06:08:09.996Z,6.01
2023-02-22T06:10:36.630Z,6.07
2023-02-22T06:13:04.347Z,6.06
2023-02-22T06:15:31.657Z,6.04
2023-02-22T06:17:59.105Z,6.03
2023-02-22T06:20:33.249Z,5.96
2023-02-22T06:23:04.824Z,5.94
2023-02-22T06:25:36.960Z,5.92
2023-02-22T06:28:06.773Z,5.96
2023-02-22T06:30:34.092Z,6.02
2023-02-22T06:33:00.925Z,6.13
2023-02-22T06:35:27.678Z,6.14
2023-02-22T06:37:54.542Z,6.26
2023-02-22T06:40:23.575Z,6.45
2023-02-22T06:42:50.325Z,6.61
2023-02-22T06:45:18.189Z,6.72
2023-02-22T06:47:47.589Z,6.76
2023-02-22T06:50:28.481Z,6.85
2023-02-22T06:52:57.909Z,6.86
2023-02-22T06:55:28.726Z,6.87
2023-02-22T06:57:58.447Z,6.96
2023-02-22T07:00:27.226Z,7.12
2023-02-22T07:03:00.357Z,7.23
2023-02-22T07:05:29.087Z,7.28
2023-02-22T07:08:11.309Z,7.32
2023-02-22T07:10:40.099Z,7.41
2023-02-22T07:13:08.847Z,7.47
2023-02-22T07:15:40.251Z,7.52
2023-02-22T07:18:07.494Z,7.64
2023-02-22T07:20:42.743Z,7.67
2023-02-22T07:23:11.991Z,7.89
2023-02-22T07:25:38.913Z,8.02
2023-02-22T07:28:06.018Z,8.13
2023-02-22T07:30:36.962Z,8.21
2023-02-22T07:33:09.466Z,8.25
2023-02-22T07:35:37.632Z,8.38
2023-02-22T07:38:06.378Z,8.36
2023-02-22T07:40:37.024Z,8.44
2023-02-22T07:43:23.839Z,8.53
2023-02-22T07:45:52.002Z,8.58
2023-02-22T07:48:21.115Z,8.58
2023-02-22T07:50:47.758Z,8.54
2023-02-22T07:53:33.676Z,8.48
2023-02-22T07:56:01.535Z,8.39
2023-02-22T07:58:29.855Z,8.36
2023-02-22T08:00:57.003Z,8.48
2023-02-22T08:03:26.751Z,8.64
2023-02-22T08:05:57.894Z,8.77
2023-02-22T08:08:27.440Z,8.78
2023-02-22T08:10:53.927Z,8.81
2023-02-22T08:13:22.292Z,8.91
2023-02-22T08:15:52.028Z,9.02
2023-02-22T08:18:19.844Z,9.11
2023-02-22T08:20:47.607Z,9.14
2023-02-22T08:23:15.377Z,9.18
2023-02-22T08:25:42.169Z,9.21
2023-02-22T08:28:10.487Z,9.32
2023-02-22T08:30:40.282Z,9.48
2023-02-22T08:33:07.200Z,9.57
2023-02-22T08:35:34.102Z,9.58
2023-02-22T08:38:06.422Z,9.53
2023-02-22T08:40:39.390Z,9.53
2023-02-22T08:43:06.688Z,9.46
2023-02-22T08:45:33.549Z,9.53
2023-02-22T08:48:02.480Z,9.55
2023-02-22T08:50:38.328Z,9.52
2023-02-22T08:53:09.348Z,9.58
2023-02-22T08:55:41.628Z,9.57
2023-02-22T08:58:13.892Z,9.65
2023-02-22T09:00:41.071Z,9.73
2023-02-22T09:03:09.283Z,9.87
2023-02-22T09:05:35.871Z,9.86
2023-02-22T09:08:02.898Z,9.94
2023-02-22T09:10:30.754Z,10.03
2023-02-22T09:12:57.694Z,10.23
2023-02-22T09:15:28.616Z,10.53
2023-02-22T09:17:55.793Z,10.38
2023-02-22T09:20:25.511Z,10.31
2023-02-22T09:22:53.225Z,10.40
2023-02-22T09:25:30.079Z,10.38
2023-02-22T09:27:59.061Z,10.58
2023-02-22T09:30:45.890Z,10.62
2023-02-22T09:33:18.026Z,10.71
2023-02-22T09:35:54.000Z,10.42
2023-02-22T09:38:26.196Z,10.26
2023-02-22T09:40:55.237Z,10.16
2023-02-22T09:43:55.401Z,9.97
2023-02-22T09:46:24.715Z,10.00
2023-02-22T09:49:01.665Z,9.97
2023-02-22T09:51:55.860Z,10.01
2023-02-22T09:54:58.440Z,10.14
2023-02-22T09:57:37.452Z,10.05
2023-02-22T10:00:17.861Z,10.05
2023-02-22T10:02:48.964Z,10.00
2023-02-22T10:05:20.313Z,9.91
2023-02-22T10:07:53.277Z,9.92
2023-02-22T10:10:26.354Z,9.94
2023-02-22T10:12:55.334Z,9.84
2023-02-22T10:15:32.283Z,10.02
2023-02-22T10:18:01.477Z,10.12
2023-02-22T10:21:00.557Z,10.37
2023-02-22T10:24:58.429Z,10.46
2023-02-22T10:27:48.035Z,10.70
2023-02-22T10:30:25.824Z,11.03
2023-02-22T10:33:03.360Z,11.27
2023-02-22T10:35:35.546Z,11.58
2023-02-22T10:38:20.478Z,11.40
2023-02-22T10:40:50.330Z,11.90
2023-02-22T10:43:20.973Z,12.09
2023-02-22T10:45:53.068Z,12.42
2023-02-22T10:48:21.164Z,12.20
2023-02-22T10:50:51.155Z,11.86
2023-02-22T10:53:24.407Z,11.57
2023-02-22T10:56:21.632Z,10.99
2023-02-22T10:58:48.320Z,10.64
2023-02-22T11:01:41.259Z,11.00
2023-02-22T11:05:06.057Z,10.72
2023-02-22T11:07:36.234Z,10.94
2023-02-22T11:10:10.834Z,10.83
2023-02-22T11:12:40.057Z,10.74
2023-02-22T11:15:19.228Z,10.67
2023-02-22T11:17:48.142Z,10.51
2023-02-22T11:20:25.822Z,10.52
2023-02-22T11:23:01.052Z,10.65
2023-02-22T11:25:45.075Z,10.73
2023-02-22T11:28:20.729Z,10.71
2023-02-22T11:30:51.657Z,10.85
2023-02-22T11:33:29.405Z,10.77
2023-02-22T11:36:07.142Z,11.06
2023-02-22T11:38:37.043Z,10.96
2023-02-22T11:41:22.891Z,10.95
2023-02-22T11:43:54.473Z,10.61
2023-02-22T11:46:34.852Z,10.80
2023-02-22T11:49:06.079Z,10.85
2023-02-22T11:51:45.116Z,11.09
2023-02-22T11:54:39.440Z,11.29
2023-02-22T11:57:26.524Z,11.21
2023-02-22T12:00:35.846Z,11.44
2023-02-22T12:03:40.439Z,11.47
2023-02-22T12:06:34.591Z,11.24
2023-02-22T12:09:34.687Z,11.08
2023-02-22T12:12:43.303Z,11.03
2023-02-22T12:15:30.208Z,11.20
2023-02-22T12:18:32.476Z,11.42
2023-02-22T12:21:07.649Z,11.46
2023-02-22T12:24:03.293Z,11.43
2023-02-22T12:33:38.524Z,11.19
2023-02-22T12:36:14.730Z,11.25
2023-02-22T12:39:28.766Z,11.22
2023-02-22T12:41:59.371Z,11.08
2023-02-22T12:44:55.436Z,11.09
2023-02-22T12:47:51.962Z,11.27
2023-02-22T12:50:37.910Z,11.02
2023-02-22T12:53:29.498Z,10.89
2023-02-22T12:56:22.102Z,10.91
2023-02-22T12:59:04.676Z,11.01
2023-02-22T13:01:45.566Z,11.01
2023-02-22T13:04:21.452Z,11.03
2023-02-22T13:07:23.852Z,11.01
2023-02-22T13:10:35.431Z,11.02
2023-02-22T13:13:20.244Z,11.03
2023-02-22T13:16:29.322Z,10.96
2023-02-22T13:19:15.527Z,10.96
2023-02-22T13:22:00.984Z,10.97
2023-02-22T13:24:56.922Z,10.89
2023-02-22T13:27:34.698Z,10.63
2023-02-22T13:30:06.188Z,10.63
2023-02-22T13:32:45.606Z,10.83
2023-02-22T13:35:18.377Z,10.49
2023-02-22T13:38:23.113Z,10.63
2023-02-22T13:40:54.458Z,10.72
2023-02-22T13:47:17.081Z,10.67
2023-02-22T13:50:02.029Z,10.68
2023-02-22T13:52:33.107Z,10.62
2023-02-22T13:55:11.213Z,10.59
2023-02-22T13:57:51.521Z,10.32
2023-02-22T14:00:21.927Z,10.44
2023-02-22T14:03:10.585Z,10.67
2023-02-22T14:05:49.613Z,10.88
2023-02-22T14:08:20.771Z,11.07
2023-02-22T14:10:59.015Z,11.23
2023-02-22T14:13:29.311Z,11.00
2023-02-22T14:16:05.145Z,10.95
2023-02-22T14:19:06.652Z,10.86
2023-02-22T14:21:35.331Z,10.91
2023-02-22T14:24:17.617Z,10.96
2023-02-22T14:27:09.105Z,11.25
2023-02-22T14:29:38.952Z,11.39
2023-02-22T14:32:17.839Z,11.18
2023-02-22T14:34:51.232Z,10.72
2023-02-22T14:37:28.412Z,10.51
2023-02-22T14:40:14.300Z,10.28
2023-02-22T14:42:48.536Z,10.26
2023-02-22T14:45:23.627Z,10.38
2023-02-22T14:48:04.124Z,10.13
2023-02-22T14:50:39.917Z,10.11
2023-02-22T14:53:23.537Z,10.19
2023-02-22T14:55:56.788Z,10.06
2023-02-22T14:58:52.314Z,9.96
2023-02-22T15:01:21.589Z,10.02
2023-02-22T15:04:02.096Z,9.96
2023-02-22T15:06:35.559Z,9.79
2023-02-22T15:09:28.965Z,9.62
2023-02-22T15:12:10.314Z,9.68
2023-02-22T15:14:41.289Z,9.66
2023-02-22T15:17:20.772Z,9.65
2023-02-22T15:19:56.449Z,9.69
2023-02-22T15:22:27.437Z,9.90
2023-02-22T15:25:05.368Z,10.36
2023-02-22T15:27:36.997Z,10.39
2023-02-22T15:30:33.067Z,10.00
2023-02-22T15:33:29.950Z,9.59
2023-02-22T15:36:01.108Z,9.41
2023-02-22T15:38:30.679Z,9.20
2023-02-22T15:41:05.976Z,9.06
2023-02-22T15:43:35.217Z,9.03
2023-02-22T15:46:06.868Z,9.01
2023-02-22T15:48:37.546Z,9.01
2023-02-22T15:51:12.004Z,8.95
2023-02-22T15:53:43.179Z,8.97
2023-02-22T15:56:14.871Z,8.94
2023-02-22T15:58:46.812Z,8.84
2023-02-22T16:01:18.954Z,8.88
2023-02-22T16:04:01.037Z,8.92
2023-02-22T16:07:00.584Z,8.92
2023-02-22T16:09:30.642Z,8.86
2023-02-22T16:12:11.055Z,8.81
2023-02-22T16:14:40.675Z,8.79
2023-02-22T16:20:45.149Z,8.75
2023-02-22T16:23:47.905Z,8.69
2023-02-22T16:26:26.071Z,8.68
2023-02-22T16:31:59.549Z,8.59
2023-02-22T16:34:26.848Z,8.55
2023-02-22T16:36:55.681Z,8.52
2023-02-22T16:39:32.891Z,8.51
2023-02-22T16:42:03.965Z,8.49
2023-02-22T16:44:30.767Z,8.40
2023-02-22T16:46:59.169Z,8.42
2023-02-22T16:49:26.428Z,8.39
2023-02-22T16:51:55.460Z,8.35
2023-02-22T16:54:34.548Z,8.30
2023-02-22T16:57:04.137Z,8.17
2023-02-22T17:00:01.505Z,8.17
2023-02-22T17:02:40.253Z,8.18
2023-02-22T17:05:37.779Z,8.16
2023-02-22T17:08:18.315Z,8.05
2023-02-22T17:10:46.479Z,7.98
2023-02-22T17:13:37.288Z,7.82
2023-02-22T17:16:06.639Z,7.70
2023-02-22T17:18:36.797Z,7.60
2023-02-22T17:21:03.892Z,7.55
2023-02-22T17:23:30.783Z,7.57
2023-02-22T17:26:03.662Z,7.58
2023-02-22T17:28:33.952Z,7.54
2023-02-22T17:31:05.389Z,7.54
2023-02-22T17:33:34.742Z,7.42
2023-02-22T17:36:13.429Z,7.34
2023-02-22T17:38:45.458Z,7.24
2023-02-22T17:41:15.127Z,7.17
2023-02-22T17:43:41.982Z,7.10
2023-02-22T17:46:08.966Z,7.02
2023-02-22T17:48:41.491Z,6.99
2023-02-22T17:51:11.029Z,6.96
2023-02-22T17:53:41.572Z,6.93
2023-02-22T17:56:13.892Z,6.83
2023-02-22T17:58:42.111Z,6.74
2023-02-22T18:01:32.903Z,6.75
2023-02-22T18:04:01.691Z,6.79
2023-02-22T18:06:33.168Z,6.75
2023-02-22T18:09:01.395Z,6.73
2023-02-22T18:11:35.460Z,6.65
2023-02-22T18:14:02.279Z,6.55
2023-02-22T18:16:29.107Z,6.45
2023-02-22T18:18:55.929Z,6.40
2023-02-22T18:21:23.603Z,6.48
2023-02-22T18:23:55.532Z,6.62
2023-02-22T18:26:22.791Z,6.68
2023-02-22T18:28:50.771Z,6.67
2023-02-22T18:31:24.015Z,6.69
2023-02-22T18:33:54.832Z,6.60
2023-02-22T18:36:24.335Z,6.57
2023-02-22T18:38:54.077Z,6.54
2023-02-22T18:41:21.643Z,6.52
2023-02-22T18:43:48.237Z,6.49
2023-02-22T18:46:21.762Z,6.45
2023-02-22T18:48:53.530Z,6.44
2023-02-22T18:51:20.021Z,6.42
2023-02-22T18:53:50.536Z,6.41
2023-02-22T18:56:22.038Z,6.30
2023-02-22T18:58:52.592Z,6.18
2023-02-22T19:01:19.144Z,6.16
2023-02-22T19:03:48.882Z,6.13
2023-02-22T19:06:19.011Z,6.07
2023-02-22T19:08:46.070Z,6.04
2023-02-22T19:11:20.154Z,6.01
2023-02-22T19:13:47.637Z,5.84
2023-02-22T19:16:20.042Z,5.79
2023-02-22T19:18:47.358Z,5.77
2023-02-22T19:21:14.694Z,5.69
2023-02-22T19:23:49.540Z,5.65
2023-02-22T19:26:24.159Z,5.62
2023-02-22T19:28:57.015Z,5.66
2023-02-22T19:31:33.932Z,5.64
2023-02-22T19:34:09.158Z,5.63
2023-02-22T19:36:43.739Z,5.55
2023-02-22T19:39:10.741Z,5.52
2023-02-22T19:41:39.318Z,5.45
2023-02-22T19:44:09.078Z,5.47
2023-02-22T19:46:36.123Z,5.43
2023-02-22T19:49:04.008Z,5.39
2023-02-22T19:51:31.837Z,5.37
2023-02-22T19:54:03.886Z,5.35
2023-02-22T19:56:36.604Z,5.36
2023-02-22T19:59:20.021Z,5.33
2023-02-22T20:01:46.920Z,5.20
2023-02-22T20:04:21.526Z,5.17
2023-02-22T20:06:54.733Z,5.14
2023-02-22T20:09:31.918Z,5.26
2023-02-22T20:12:00.432Z,5.30
2023-02-22T20:14:28.662Z,5.30
2023-02-22T20:16:59.528Z,5.28
2023-02-22T20:19:26.903Z,5.20
2023-02-22T20:21:56.748Z,5.18
2023-02-22T20:24:25.011Z,5.07
2023-02-22T20:26:58.953Z,5.01
2023-02-22T20:29:31.432Z,4.96
2023-02-22T20:32:00.137Z,4.85
2023-02-22T20:34:31.202Z,4.86
2023-02-22T20:37:03.323Z,4.73
2023-02-22T20:39:30.129Z,4.77
2023-02-22T20:42:00.506Z,4.72
2023-02-22T20:44:27.258Z,4.72
2023-02-22T20:46:56.979Z,4.71
2023-02-22T20:49:23.580Z,4.62
2023-02-22T20:51:50.302Z,4.50
2023-02-22T20:54:25.880Z,4.47
2023-02-22T20:56:53.226Z,4.42
2023-02-22T20:59:21.100Z,4.41
2023-02-22T21:01:49.489Z,4.42
2023-02-22T21:04:18.798Z,4.36
2023-02-22T21:06:49.737Z,4.33
2023-02-22T21:09:20.713Z,4.38
2023-02-22T21:11:47.704Z,4.37
2023-02-22T21:14:18.696Z,4.29
2023-02-22T21:16:52.239Z,4.14
2023-02-22T21:19:29.024Z,4.13
2023-02-22T21:21:57.995Z,4.00
2023-02-22T21:24:26.236Z,3.92
2023-02-22T21:26:52.936Z,3.91
2023-02-22T21:29:28.234Z,3.85
2023-02-22T21:31:57.826Z,3.77
2023-02-22T21:34:25.775Z,3.80
2023-02-22T21:36:53.380Z,3.74
2023-02-22T21:39:28.169Z,3.76
2023-02-22T21:42:00.270Z,3.74
2023-02-22T21:44:27.413Z,3.80
2023-02-22T21:46:56.715Z,3.76
2023-02-22T21:49:23.526Z,3.69
2023-02-22T21:51:51.794Z,3.67
2023-02-22T21:54:19.272Z,3.66
2023-02-22T21:56:53.804Z,3.69
2023-02-22T21:59:23.824Z,3.35
2023-02-22T22:01:58.235Z,3.38
2023-02-22T22:04:30.587Z,3.33
2023-02-22T22:07:04.411Z,3.30
2023-02-22T22:09:37.625Z,3.32
2023-02-22T22:12:10.764Z,3.36
2023-02-22T22:14:38.079Z,3.39
2023-02-22T22:17:07.122Z,3.45
2023-02-22T22:19:51.796Z,3.42
2023-02-22T22:22:23.210Z,3.43
2023-02-22T22:24:53.946Z,3.37
2023-02-22T22:27:21.351Z,3.27
2023-02-22T22:29:47.981Z,3.27
2023-02-22T22:32:20.751Z,3.23
2023-02-22T22:34:49.920Z,3.27
2023-02-22T22:37:19.450Z,3.37
2023-02-22T22:39:46.062Z,3.28
2023-02-22T22:42:14.856Z,3.08
2023-02-22T22:44:45.646Z,2.92
2023-02-22T22:47:13.396Z,2.82
2023-02-22T22:49:40.503Z,2.88
2023-02-22T22:52:10.228Z,2.87
2023-02-22T22:54:38.376Z,2.79
2023-02-22T22:57:06.476Z,2.72
2023-02-22T22:59:35.340Z,2.82
2023-02-22T23:02:10.777Z,2.91
2023-02-22T23:04:38.232Z,2.85
2023-02-22T23:07:07.719Z,2.74
2023-02-22T23:09:37.524Z,2.78
2023-02-22T23:12:31.678Z,2.74
2023-02-22T23:14:58.517Z,2.81
2023-02-22T23:17:31.713Z,2.85
2023-02-22T23:19:58.329Z,2.95
2023-02-22T23:22:27.995Z,2.98
2023-02-22T23:24:55.517Z,3.01
2023-02-22T23:27:24.826Z,2.97
2023-02-22T23:29:52.544Z,2.87
2023-02-22T23:32:23.166Z,2.97
2023-02-22T23:34:49.918Z,3.05
2023-02-22T23:37:20.933Z,3.01
2023-02-22T23:39:51.160Z,3.05
2023-02-22T23:42:25.815Z,2.98
2023-02-22T23:44:55.874Z,2.98
2023-02-22T23:47:29.892Z,3.01
2023-02-22T23:50:04.180Z,2.96
2023-02-22T23:52:33.587Z,3.04
2023-02-22T23:55:04.651Z,2.95
2023-02-22T23:57:32.853Z,2.95
